Time;durP1;ratioP1;P1;durP2;ratioP2;P2;SDS_P1;SDS_P2;PMS_P1;PMS_P2;Temp;Humidity;BMP_temperature;BMP_pressure;BME280_temperature;BME280_humidity;BME280_pressure;Samples;Min_cycle;Max_cycle;Signal;HPM_P1;HPM_P2
2021/08/12 00:00:30;;;;;;;5.05;3.83;;;20.30;99.90;;;;;;4189082;28;20058;-63
2021/08/12 00:02:32;;;;;;;4.50;2.80;;;20.30;99.90;;;;;;4188352;28;20036;-62
2021/08/12 00:04:33;;;;;;;3.30;2.60;;;20.40;99.90;;;;;;4188999;28;20074;-61
2021/08/12 00:06:34;;;;;;;4.63;3.50;;;20.30;99.90;;;;;;4188882;28;20094;-62
2021/08/12 00:08:35;;;;;;;3.38;2.83;;;20.30;99.90;;;;;;4188816;28;20032;-62
2021/08/12 00:10:36;;;;;;;4.97;2.90;;;20.30;99.90;;;;;;4189800;28;20230;-62
2021/08/12 00:12:37;;;;;;;4.70;3.00;;;20.20;99.90;;;;;;4186612;28;20087;-61
2021/08/12 00:14:39;;;;;;;3.85;3.30;;;20.20;99.90;;;;;;4189890;28;20575;-62
2021/08/12 00:16:40;;;;;;;4.82;2.67;;;20.20;99.90;;;;;;4187450;28;20078;-61
2021/08/12 00:18:42;;;;;;;4.93;3.03;;;20.10;99.90;;;;;;4189817;28;20431;-61
2021/08/12 00:20:44;;;;;;;5.10;3.35;;;20.10;99.90;;;;;;4188622;28;20033;-61
2021/08/12 00:22:45;;;;;;;3.47;2.80;;;20.10;99.90;;;;;;4190160;28;20067;-61
2021/08/12 00:24:46;;;;;;;5.68;3.13;;;20.00;99.90;;;;;;4187580;28;20048;-62
2021/08/12 00:26:48;;;;;;;4.80;2.80;;;20.10;99.90;;;;;;4189427;28;20097;-61
2021/08/12 00:28:49;;;;;;;4.25;2.53;;;20.00;99.90;;;;;;4184104;28;20772;-62
2021/08/12 00:30:50;;;;;;;5.65;2.85;;;20.00;99.90;;;;;;4189441;28;20025;-62
2021/08/12 00:32:52;;;;;;;3.45;2.55;;;20.00;99.90;;;;;;4188028;28;20110;-62
2021/08/12 00:34:53;;;;;;;4.75;3.17;;;20.00;99.90;;;;;;4189267;28;20362;-62
2021/08/12 00:36:54;;;;;;;5.20;2.85;;;19.90;99.90;;;;;;4189126;28;20037;-62
2021/08/12 00:38:55;;;;;;;4.53;3.35;;;19.90;99.90;;;;;;4187958;28;20086;-62
2021/08/12 00:40:56;;;;;;;5.20;3.08;;;19.90;99.90;;;;;;4190293;28;20550;-62
2021/08/12 00:42:57;;;;;;;3.72;3.00;;;19.90;99.90;;;;;;4187841;28;20036;-62
2021/08/12 00:44:58;;;;;;;3.45;2.80;;;19.80;99.90;;;;;;4189787;28;20561;-62
2021/08/12 00:47:00;;;;;;;5.38;2.70;;;19.80;99.90;;;;;;4187822;28;20538;-61
2021/08/12 00:49:01;;;;;;;4.13;3.10;;;19.80;99.90;;;;;;4189507;28;20612;-62
2021/08/12 00:51:02;;;;;;;4.63;3.50;;;19.80;99.90;;;;;;4185986;28;20082;-61
2021/08/12 00:53:03;;;;;;;10.10;3.08;;;19.70;99.90;;;;;;4189720;28;20062;-62
2021/08/12 00:55:05;;;;;;;3.63;2.70;;;19.70;99.90;;;;;;4187724;28;20029;-62
2021/08/12 00:57:08;;;;;;;5.20;2.90;;;19.80;99.90;;;;;;4189258;28;20086;-62
2021/08/12 00:59:09;;;;;;;2.90;2.60;;;19.80;99.90;;;;;;4187929;28;20090;-61
2021/08/12 01:01:11;;;;;;;5.10;3.30;;;19.80;99.90;;;;;;4189404;28;20032;-62
2021/08/12 01:03:19;;;;;;;3.83;3.13;;;19.80;99.90;;;;;;4187527;28;20079;-61
2021/08/12 01:05:20;;;;;;;7.00;3.20;;;19.90;99.90;;;;;;4188280;28;20504;-62
2021/08/12 01:07:32;;;;;;;3.45;3.00;;;19.90;99.90;;;;;;4188960;28;20044;-61
2021/08/12 01:09:39;;;;;;;5.28;3.42;;;19.90;99.90;;;;;;4188326;28;20028;-62
2021/08/12 01:11:45;;;;;;;4.88;3.25;;;19.90;99.90;;;;;;4188465;28;20110;-62
2021/08/12 01:14:00;;;;;;;3.50;2.80;;;19.90;99.90;;;;;;4188451;28;20090;-61
2021/08/12 01:16:04;;;;;;;3.85;2.75;;;19.90;99.90;;;;;;4188631;28;20025;-61
2021/08/12 01:18:34;;;;;;;3.83;3.03;;;19.80;99.90;;;;;;4187950;28;20473;-62
2021/08/12 01:20:51;;;;;;;6.63;3.33;;;19.80;99.90;;;;;;4183409;28;20451;-62
2021/08/12 01:22:55;;;;;;;6.05;3.47;;;19.80;99.90;;;;;;4188173;28;20098;-62
2021/08/12 01:24:59;;;;;;;6.65;3.60;;;19.70;99.90;;;;;;4188637;28;20435;-62
2021/08/12 01:27:07;;;;;;;4.25;3.10;;;19.70;99.90;;;;;;4188372;28;20102;-62
2021/08/12 01:29:13;;;;;;;3.70;3.40;;;19.70;99.90;;;;;;4188434;28;20017;-62
2021/08/12 01:31:45;;;;;;;5.13;2.65;;;19.70;99.90;;;;;;4188216;28;20492;-62
2021/08/12 01:34:09;;;;;;;4.22;2.83;;;19.60;99.90;;;;;;4187574;28;20044;-62
2021/08/12 01:36:14;;;;;;;4.97;2.80;;;19.60;99.90;;;;;;4189677;28;20489;-61
2021/08/12 01:38:21;;;;;;;4.55;3.15;;;19.50;99.90;;;;;;4191114;28;20106;-62
2021/08/12 01:40:25;;;;;;;8.88;3.30;;;19.50;99.90;;;;;;4192378;28;20045;-62
2021/08/12 01:42:27;;;;;;;5.18;3.25;;;19.50;99.90;;;;;;4191152;28;20098;-62
2021/08/12 01:44:31;;;;;;;5.65;3.58;;;19.40;99.90;;;;;;4192241;28;20032;-62
2021/08/12 01:46:34;;;;;;;5.18;3.15;;;19.40;99.90;;;;;;4190839;28;20036;-62
2021/08/12 01:48:36;;;;;;;5.68;2.88;;;19.40;99.90;;;;;;4191231;28;20070;-62
2021/08/12 01:50:38;;;;;;;7.28;3.50;;;19.40;99.90;;;;;;4191855;28;20062;-61
2021/08/12 01:52:45;;;;;;;3.33;2.70;;;19.40;99.90;;;;;;4190177;28;20048;-62
2021/08/12 01:54:49;;;;;;;4.10;2.88;;;19.40;99.90;;;;;;4191019;28;20074;-61
2021/08/12 01:56:51;;;;;;;3.50;2.67;;;19.40;99.90;;;;;;4190461;28;20097;-62
2021/08/12 01:58:56;;;;;;;7.53;2.97;;;19.40;99.90;;;;;;4192157;28;20574;-61
2021/08/12 02:00:58;;;;;;;9.07;3.30;;;19.30;99.90;;;;;;4190202;28;20621;-61
2021/08/12 02:03:00;;;;;;;5.25;2.83;;;19.30;99.90;;;;;;4175533;28;20049;-62
2021/08/12 02:05:03;;;;;;;4.60;3.42;;;19.20;99.90;;;;;;4179762;28;20118;-61
2021/08/12 02:07:06;;;;;;;4.55;3.10;;;19.20;99.90;;;;;;4191268;28;20044;-63
2021/08/12 02:09:08;;;;;;;6.85;3.65;;;19.20;99.90;;;;;;4190312;28;20090;-61
2021/08/12 02:11:09;;;;;;;4.25;2.80;;;19.20;99.90;;;;;;4191393;28;20102;-61
2021/08/12 02:13:11;;;;;;;4.78;3.00;;;19.20;99.90;;;;;;4190460;28;20024;-62
2021/08/12 02:15:13;;;;;;;5.25;3.53;;;19.20;99.90;;;;;;4191625;28;20102;-62
2021/08/12 02:17:14;;;;;;;6.47;3.13;;;19.10;99.90;;;;;;4189870;28;20544;-61
2021/08/12 02:19:15;;;;;;;4.75;2.90;;;19.10;99.90;;;;;;4191410;28;20044;-61
2021/08/12 02:21:36;;;;;;;6.07;3.20;;;19.10;99.90;;;;;;4189264;28;20516;-61
2021/08/12 02:23:44;;;;;;;3.33;2.90;;;19.10;99.90;;;;;;4181930;28;20085;-61
2021/08/12 02:25:56;;;;;;;5.43;3.33;;;19.10;99.90;;;;;;4189445;28;20048;-62
2021/08/12 02:28:00;;;;;;;4.22;3.22;;;19.00;99.90;;;;;;4191405;28;20369;-62
2021/08/12 02:30:01;;;;;;;6.57;3.08;;;19.00;99.90;;;;;;4190206;28;20042;-62
2021/08/12 02:32:05;;;;;;;5.03;3.22;;;19.00;99.90;;;;;;4190739;28;20044;-61
2021/08/12 02:34:07;;;;;;;6.82;3.30;;;19.00;99.90;;;;;;4190260;28;20435;-62
2021/08/12 02:36:09;;;;;;;6.45;3.33;;;19.00;99.90;;;;;;4190584;28;20028;-61
2021/08/12 02:38:13;;;;;;;5.65;3.10;;;18.90;99.90;;;;;;4190179;28;20032;-62
2021/08/12 02:40:14;;;;;;;6.28;3.33;;;18.90;99.90;;;;;;4190434;28;20017;-61
2021/08/12 02:42:16;;;;;;;6.95;3.60;;;18.90;99.90;;;;;;4190960;28;20025;-61
2021/08/12 02:44:18;;;;;;;5.93;3.17;;;18.90;99.90;;;;;;4188264;28;20093;-61
2021/08/12 02:46:24;;;;;;;7.00;2.97;;;18.90;99.90;;;;;;4191039;28;20036;-60
2021/08/12 02:48:28;;;;;;;5.32;2.88;;;19.00;99.90;;;;;;4189720;28;20020;-62
2021/08/12 02:50:31;;;;;;;6.13;3.08;;;18.90;99.90;;;;;;4191509;28;20028;-61
2021/08/12 02:52:34;;;;;;;4.25;3.05;;;18.90;99.90;;;;;;4188927;28;20093;-61
2021/08/12 02:54:37;;;;;;;8.63;3.42;;;18.90;99.90;;;;;;4191086;28;20048;-61
2021/08/12 02:56:38;;;;;;;3.67;2.97;;;18.90;99.90;;;;;;4189473;28;20075;-61
2021/08/12 02:58:41;;;;;;;5.35;3.72;;;18.90;99.90;;;;;;4191349;28;20090;-62
2021/08/12 03:00:43;;;;;;;8.23;3.30;;;18.90;99.90;;;;;;4189907;28;20387;-62
2021/08/12 03:02:47;;;;;;;7.90;3.45;;;18.90;99.90;;;;;;4190554;28;20496;-61
2021/08/12 03:04:48;;;;;;;6.03;3.05;;;18.90;99.90;;;;;;4189457;28;20086;-62
2021/08/12 03:06:54;;;;;;;5.43;3.10;;;18.90;99.90;;;;;;4190840;28;20028;-61
2021/08/12 03:08:56;;;;;;;7.00;3.75;;;18.80;99.90;;;;;;4189916;28;20044;-62
2021/08/12 03:10:58;;;;;;;4.30;2.97;;;18.80;99.90;;;;;;4190873;28;20178;-62
2021/08/12 03:13:00;;;;;;;6.00;3.20;;;18.90;99.90;;;;;;4188221;28;20047;-62
2021/08/12 03:15:02;;;;;;;4.20;3.58;;;18.80;99.90;;;;;;4190038;28;20419;-62
2021/08/12 03:17:04;;;;;;;11.18;3.40;;;18.80;99.90;;;;;;4189212;28;20110;-62
2021/08/12 03:19:05;;;;;;;4.05;3.15;;;18.80;99.90;;;;;;4187609;28;20550;-62
2021/08/12 03:21:06;;;;;;;6.50;3.67;;;18.80;99.90;;;;;;4189831;28;20447;-61
2021/08/12 03:23:08;;;;;;;4.22;3.00;;;18.80;99.90;;;;;;4188583;28;20827;-62
2021/08/12 03:25:09;;;;;;;4.65;3.78;;;18.80;99.90;;;;;;4190525;28;20040;-61
2021/08/12 03:27:12;;;;;;;10.30;3.47;;;18.80;99.90;;;;;;4186042;28;20041;-62
2021/08/12 03:29:13;;;;;;;4.85;3.03;;;18.80;99.90;;;;;;4173975;28;20041;-61
2021/08/12 03:31:14;;;;;;;5.13;3.30;;;18.70;99.90;;;;;;4181929;28;20505;-62
2021/08/12 03:33:15;;;;;;;6.53;3.60;;;18.70;99.90;;;;;;4190944;28;20033;-62
2021/08/12 03:35:17;;;;;;;10.73;3.75;;;18.70;99.90;;;;;;4189113;28;20484;-62
2021/08/12 03:37:18;;;;;;;6.63;3.80;;;18.70;99.90;;;;;;4189009;28;20170;-61
2021/08/12 03:39:21;;;;;;;6.65;3.35;;;18.70;99.90;;;;;;4188844;28;20590;-62
2021/08/12 03:41:22;;;;;;;8.75;3.53;;;18.70;99.90;;;;;;4190166;28;20082;-62
2021/08/12 03:43:23;;;;;;;8.60;3.90;;;18.80;99.90;;;;;;4189302;28;21088;-61
2021/08/12 03:45:24;;;;;;;7.00;3.55;;;18.80;99.90;;;;;;4189127;28;20048;-61
2021/08/12 03:47:26;;;;;;;6.47;3.72;;;18.80;99.90;;;;;;4187181;28;20824;-60
2021/08/12 03:49:27;;;;;;;5.43;3.65;;;18.80;99.90;;;;;;4188719;28;20094;-62
2021/08/12 03:51:29;;;;;;;4.93;3.30;;;18.80;99.90;;;;;;4189174;28;20478;-61
2021/08/12 03:53:30;;;;;;;8.45;3.25;;;18.80;99.90;;;;;;4187836;28;20032;-62
2021/08/12 03:55:31;;;;;;;5.30;3.63;;;18.80;99.90;;;;;;4190147;28;20434;-62
2021/08/12 03:57:32;;;;;;;4.40;3.15;;;18.80;99.90;;;;;;4188136;28;20090;-61
2021/08/12 03:59:34;;;;;;;4.50;3.50;;;18.80;99.90;;;;;;4189124;28;20086;-62
2021/08/12 04:01:35;;;;;;;4.43;3.13;;;19.00;99.90;;;;;;4187872;28;20037;-62
2021/08/12 04:03:36;;;;;;;7.30;3.47;;;19.20;99.90;;;;;;4189425;28;20078;-62
2021/08/12 04:05:37;;;;;;;10.38;3.72;;;19.20;99.90;;;;;;4187822;28;20478;-62
2021/08/12 04:07:38;;;;;;;4.68;3.30;;;19.20;99.90;;;;;;4189628;28;20142;-62
2021/08/12 04:09:40;;;;;;;7.80;3.85;;;19.20;99.90;;;;;;4186735;28;20052;-61
2021/08/12 04:11:42;;;;;;;7.25;3.35;;;19.20;99.90;;;;;;4190109;28;20082;-62
2021/08/12 04:13:43;;;;;;;9.77;3.95;;;19.20;99.90;;;;;;4188596;28;20419;-62
2021/08/12 04:15:44;;;;;;;6.10;3.38;;;19.30;99.90;;;;;;4187580;28;20028;-61
2021/08/12 04:17:45;;;;;;;7.53;3.75;;;19.60;99.90;;;;;;4189224;28;20783;-61
2021/08/12 04:19:46;;;;;;;12.27;3.70;;;20.00;99.90;;;;;;4188312;28;20036;-62
2021/08/12 04:21:47;;;;;;;7.88;3.00;;;20.40;99.90;;;;;;4189173;28;20109;-62
2021/08/12 04:23:49;;;;;;;4.93;2.78;;;20.70;99.90;;;;;;4188538;28;20082;-61
2021/08/12 04:25:52;;;;;;;11.25;3.60;;;20.70;99.90;;;;;;4189528;28;20048;-62
2021/08/12 04:27:54;;;;;;;6.10;3.38;;;20.70;99.90;;;;;;4187848;28;20364;-62
2021/08/12 04:29:55;;;;;;;8.88;3.30;;;20.40;99.90;;;;;;4189937;28;20028;-61
2021/08/12 04:31:56;;;;;;;4.65;3.10;;;20.30;99.90;;;;;;4187751;28;20574;-60
2021/08/12 04:33:57;;;;;;;6.07;3.17;;;20.10;99.90;;;;;;4189429;28;20617;-60
2021/08/12 04:35:58;;;;;;;6.00;3.30;;;20.00;99.90;;;;;;4188395;28;20039;-61
2021/08/12 04:37:59;;;;;;;7.35;3.50;;;20.20;99.90;;;;;;4190025;28;20032;-63
2021/08/12 04:40:01;;;;;;;7.10;3.45;;;20.40;99.90;;;;;;4188064;28;20036;-61
2021/08/12 04:42:03;;;;;;;7.82;3.70;;;20.60;99.90;;;;;;4189401;28;20037;-60
2021/08/12 04:44:04;;;;;;;6.35;3.50;;;20.90;99.90;;;;;;4187851;28;20032;-63
2021/08/12 04:46:05;;;;;;;5.40;3.15;;;20.90;99.90;;;;;;4189194;28;20044;-62
2021/08/12 04:48:06;;;;;;;6.50;3.50;;;21.30;99.90;;;;;;4188060;28;20131;-61
2021/08/12 04:50:09;;;;;;;8.65;3.95;;;21.70;99.90;;;;;;4188745;28;20021;-61
2021/08/12 04:52:10;;;;;;;5.75;3.63;;;22.10;99.90;;;;;;4188434;28;20501;-65
2021/08/12 04:54:12;;;;;;;7.78;3.85;;;22.40;99.90;;;;;;4187778;28;20098;-61
2021/08/12 04:56:13;;;;;;;13.13;3.58;;;22.70;99.90;;;;;;4188854;28;20435;-62
2021/08/12 04:58:15;;;;;;;8.98;3.75;;;23.20;99.90;;;;;;4187481;28;20074;-61
2021/08/12 05:00:17;;;;;;;10.02;3.45;;;23.40;99.90;;;;;;4189311;28;20255;-62
2021/08/12 05:02:19;;;;;;;6.00;3.22;;;23.90;99.90;;;;;;4187390;28;20045;-60
2021/08/12 05:04:20;;;;;;;11.43;3.50;;;23.90;99.90;;;;;;4188389;28;20066;-62
2021/08/12 05:06:21;;;;;;;5.63;3.15;;;23.90;99.90;;;;;;4187158;28;20506;-62
2021/08/12 05:08:24;;;;;;;5.95;3.10;;;24.40;99.90;;;;;;4189743;28;20028;-62
2021/08/12 05:10:25;;;;;;;5.43;3.38;;;24.70;99.90;;;;;;4187496;28;20054;-62
2021/08/12 05:12:26;;;;;;;9.13;3.25;;;24.70;99.90;;;;;;4191152;28;20102;-64
2021/08/12 05:14:28;;;;;;;6.63;3.03;;;24.80;99.90;;;;;;4188936;28;20149;-64
2021/08/12 05:16:29;;;;;;;6.97;3.20;;;25.00;99.90;;;;;;4192400;28;20020;-64
2021/08/12 05:18:30;;;;;;;7.57;3.35;;;25.30;99.90;;;;;;4191401;28;20074;-61
2021/08/12 05:20:31;;;;;;;9.50;2.83;;;25.70;99.90;;;;;;4191780;28;20451;-62
2021/08/12 05:22:32;;;;;;;7.90;3.30;;;26.10;99.90;;;;;;4191443;28;20024;-62
2021/08/12 05:24:34;;;;;;;9.32;3.60;;;26.50;99.60;;;;;;4190801;28;20056;-61
2021/08/12 05:26:35;;;;;;;10.00;3.55;;;26.40;99.40;;;;;;4191790;28;20036;-62
2021/08/12 05:28:36;;;;;;;6.22;2.80;;;26.30;99.10;;;;;;4190547;28;20094;-61
2021/08/12 05:30:38;;;;;;;7.95;3.70;;;26.50;99.00;;;;;;4192512;28;20059;-62
2021/08/12 05:32:39;;;;;;;8.00;3.63;;;26.90;98.50;;;;;;4190064;28;20049;-62
2021/08/12 05:34:40;;;;;;;5.18;2.97;;;27.00;98.10;;;;;;4192052;28;20090;-62
2021/08/12 05:36:41;;;;;;;8.30;3.30;;;27.20;97.80;;;;;;4190934;28;20032;-62
2021/08/12 05:38:42;;;;;;;6.53;3.20;;;27.70;97.10;;;;;;4191595;28;20107;-63
2021/08/12 05:40:43;;;;;;;7.18;2.75;;;28.00;96.40;;;;;;4190622;28;20177;-62
2021/08/12 05:42:45;;;;;;;5.63;3.22;;;27.80;96.00;;;;;;4192080;28;20086;-62
2021/08/12 05:44:46;;;;;;;8.30;3.65;;;27.40;96.20;;;;;;4190122;28;20036;-62
2021/08/12 05:46:48;;;;;;;7.07;3.45;;;26.90;96.40;;;;;;4191874;28;20033;-63
2021/08/12 05:48:49;;;;;;;5.50;3.15;;;26.70;96.60;;;;;;4190346;28;20036;-62
2021/08/12 05:50:50;;;;;;;6.80;3.00;;;26.50;96.80;;;;;;4191021;28;20090;-61
2021/08/12 05:52:51;;;;;;;8.57;3.20;;;26.70;96.90;;;;;;4190694;28;20085;-62
2021/08/12 05:54:52;;;;;;;5.93;3.10;;;27.10;96.60;;;;;;4190936;28;20571;-62
2021/08/12 05:56:53;;;;;;;4.85;3.17;;;27.60;96.10;;;;;;4191185;28;20135;-62
2021/08/12 05:58:54;;;;;;;9.10;3.33;;;28.00;95.40;;;;;;4190364;28;20029;-62
2021/08/12 06:00:55;;;;;;;7.25;3.03;;;28.40;94.90;;;;;;4189901;28;20531;-61
2021/08/12 06:03:05;;;;;;;6.38;3.05;;;28.80;94.50;;;;;;4190358;28;20070;-62
2021/08/12 06:05:06;;;;;;;6.22;2.72;;;29.10;93.80;;;;;;4189919;28;20418;-62
2021/08/12 06:07:07;;;;;;;5.95;2.80;;;29.40;93.70;;;;;;4190123;28;20098;-62
2021/08/12 06:09:09;;;;;;;7.57;2.88;;;28.90;93.50;;;;;;4191625;28;20423;-62
2021/08/12 06:11:10;;;;;;;8.40;3.47;;;28.70;93.70;;;;;;4190039;28;20044;-62
2021/08/12 06:13:11;;;;;;;5.43;2.97;;;28.70;93.50;;;;;;4191473;28;20102;-62
2021/08/12 06:15:12;;;;;;;10.50;3.92;;;28.70;93.60;;;;;;4190472;28;20024;-63
2021/08/12 06:17:14;;;;;;;8.95;3.45;;;28.80;93.50;;;;;;4190791;28;20052;-62
2021/08/12 06:19:15;;;;;;;3.58;2.80;;;28.60;93.50;;;;;;4189937;28;20089;-62
2021/08/12 06:21:16;;;;;;;4.75;3.00;;;28.20;93.40;;;;;;4191124;28;20090;-61
2021/08/12 06:23:17;;;;;;;6.63;3.22;;;27.90;93.40;;;;;;4189113;28;20682;-62
2021/08/12 06:25:21;;;;;;;6.93;2.72;;;27.40;93.70;;;;;;4190109;28;20062;-61
2021/08/12 06:27:22;;;;;;;3.60;2.83;;;27.10;93.80;;;;;;4190628;28;20025;-62
2021/08/12 06:29:23;;;;;;;5.50;2.60;;;27.10;93.90;;;;;;4190034;28;20082;-62
2021/08/12 06:31:24;;;;;;;6.20;3.03;;;27.30;93.60;;;;;;4191297;28;20040;-62
2021/08/12 06:33:25;;;;;;;4.72;2.70;;;27.50;93.20;;;;;;4189369;28;20618;-61
2021/08/12 06:35:31;;;;;;;5.22;2.90;;;27.50;93.00;;;;;;4191000;28;20443;-62
2021/08/12 06:37:47;;;;;;;3.70;2.70;;;27.80;92.70;;;;;;4188570;28;20040;-62
2021/08/12 06:39:48;;;;;;;7.40;2.40;;;27.80;91.70;;;;;;4190475;28;20082;-62
2021/08/12 06:41:49;;;;;;;5.10;2.95;;;27.90;92.10;;;;;;4189525;28;20033;-63
2021/08/12 06:43:52;;;;;;;5.00;2.70;;;27.80;91.80;;;;;;4191604;28;20070;-62
2021/08/12 06:45:53;;;;;;;8.20;3.08;;;27.60;91.60;;;;;;4189926;28;21188;-62
2021/08/12 06:47:54;;;;;;;5.40;3.22;;;27.70;91.70;;;;;;4190888;28;20025;-61
2021/08/12 06:49:56;;;;;;;9.38;2.90;;;27.80;91.70;;;;;;4189341;28;20036;-61
2021/08/12 06:51:57;;;;;;;4.40;2.80;;;27.60;91.80;;;;;;4190621;28;20040;-62
2021/08/12 06:53:58;;;;;;;4.43;2.72;;;27.40;92.00;;;;;;4189176;28;20522;-62
2021/08/12 06:55:59;;;;;;;6.57;3.15;;;27.20;92.10;;;;;;4190734;28;20028;-62
2021/08/12 06:58:01;;;;;;;5.75;2.78;;;26.80;92.20;;;;;;4189356;28;20074;-62
2021/08/12 07:00:03;;;;;;;5.35;2.60;;;26.40;92.50;;;;;;4190455;28;20029;-62
2021/08/12 07:02:05;;;;;;;9.30;3.85;;;26.30;92.90;;;;;;4189009;28;20090;-62
2021/08/12 07:04:06;;;;;;;3.00;2.70;;;26.30;92.90;;;;;;4189902;28;20062;-62
2021/08/12 07:06:07;;;;;;;7.57;3.17;;;26.20;93.00;;;;;;4189983;28;20040;-62
2021/08/12 07:08:09;;;;;;;6.45;3.95;;;26.20;93.00;;;;;;4188459;28;20113;-62
2021/08/12 07:10:11;;;;;;;10.00;3.60;;;26.00;93.00;;;;;;4190037;28;20045;-62
2021/08/12 07:12:12;;;;;;;6.30;3.50;;;25.80;93.10;;;;;;4188733;28;20071;-62
2021/08/12 07:14:14;;;;;;;3.80;2.88;;;25.50;93.20;;;;;;4190468;28;20534;-62
2021/08/12 07:16:16;;;;;;;4.20;2.95;;;25.50;93.30;;;;;;4187442;28;20048;-62
2021/08/12 07:18:17;;;;;;;4.45;2.65;;;25.40;93.20;;;;;;4190979;28;20024;-61
2021/08/12 07:20:18;;;;;;;7.97;2.65;;;25.50;93.10;;;;;;4188356;28;20063;-61
2021/08/12 07:22:19;;;;;;;7.95;5.97;;;25.70;92.80;;;;;;4190349;28;20020;-63
2021/08/12 07:24:21;;;;;;;12.02;7.80;;;25.70;92.60;;;;;;4188771;28;20106;-61
2021/08/12 07:26:22;;;;;;;5.72;3.63;;;25.80;92.60;;;;;;4190123;28;20041;-62
2021/08/12 07:28:23;;;;;;;5.75;3.25;;;25.80;92.40;;;;;;4188372;28;20080;-62
2021/08/12 07:30:24;;;;;;;3.72;2.72;;;25.80;92.30;;;;;;4190133;28;20045;-61
2021/08/12 07:32:26;;;;;;;6.20;3.28;;;26.00;92.40;;;;;;4188897;28;20049;-62
2021/08/12 07:34:27;;;;;;;7.07;4.32;;;26.40;92.20;;;;;;4189336;28;20085;-62
2021/08/12 07:36:28;;;;;;;5.18;3.80;;;26.70;91.80;;;;;;4189519;28;20462;-62
2021/08/12 07:38:30;;;;;;;5.78;2.83;;;27.00;91.70;;;;;;4188331;28;20407;-62
2021/08/12 07:40:31;;;;;;;4.53;2.40;;;27.20;91.10;;;;;;4190199;28;20078;-62
2021/08/12 07:42:32;;;;;;;3.30;2.45;;;27.30;90.70;;;;;;4188392;28;20590;-61
2021/08/12 07:44:33;;;;;;;2.85;2.47;;;27.30;90.50;;;;;;4190552;28;20426;-62
2021/08/12 07:46:34;;;;;;;3.65;3.00;;;27.40;90.40;;;;;;4188050;28;20113;-62
2021/08/12 07:48:37;;;;;;;5.32;2.92;;;27.40;90.30;;;;;;4189769;28;20033;-62
2021/08/12 07:50:38;;;;;;;5.80;2.83;;;27.60;90.30;;;;;;4188525;28;20090;-62
2021/08/12 07:52:41;;;;;;;4.63;2.95;;;27.70;90.10;;;;;;4189857;28;20082;-62
2021/08/12 07:54:46;;;;;;;9.85;3.00;;;27.70;90.10;;;;;;4188634;28;20710;-63
2021/08/12 07:56:48;;;;;;;5.70;2.35;;;27.70;90.00;;;;;;4189941;28;20036;-62
2021/08/12 07:58:50;;;;;;;5.25;3.30;;;27.70;90.10;;;;;;4188469;28;20644;-62
2021/08/12 08:00:51;;;;;;;7.05;2.88;;;28.00;90.10;;;;;;4190270;28;20024;-62
2021/08/12 08:02:52;;;;;;;3.47;3.17;;;28.00;89.90;;;;;;4188256;28;20542;-62
2021/08/12 08:04:53;;;;;;;3.80;2.38;;;28.10;89.70;;;;;;4188908;28;20388;-63
2021/08/12 08:06:54;;;;;;;6.75;4.00;;;28.10;89.40;;;;;;4187168;28;20086;-62
2021/08/12 08:08:56;;;;;;;3.25;2.88;;;28.00;89.20;;;;;;4187841;28;20374;-63
2021/08/12 08:10:57;;;;;;;5.03;3.25;;;28.00;89.20;;;;;;4187690;28;20052;-63
2021/08/12 08:12:59;;;;;;;5.03;3.10;;;27.90;88.80;;;;;;4188410;28;20036;-62
2021/08/12 08:15:01;;;;;;;3.90;2.65;;;27.90;88.60;;;;;;4189475;28;20028;-62
2021/08/12 08:17:02;;;;;;;4.93;2.85;;;27.90;88.10;;;;;;4188098;28;20482;-62
2021/08/12 08:19:03;;;;;;;5.72;2.90;;;27.80;88.20;;;;;;4189790;28;20029;-62
2021/08/12 08:21:04;;;;;;;4.65;3.13;;;27.80;88.60;;;;;;4188102;28;20063;-62
2021/08/12 08:23:08;;;;;;;5.13;3.10;;;28.00;88.40;;;;;;4189473;28;20101;-62
2021/08/12 08:25:10;;;;;;;9.35;3.97;;;28.00;87.60;;;;;;4188126;28;20090;-62
2021/08/12 08:27:11;;;;;;;5.90;3.58;;;27.90;87.50;;;;;;4189405;28;20569;-62
2021/08/12 08:29:12;;;;;;;3.60;2.60;;;27.90;87.10;;;;;;4187669;28;20028;-62
2021/08/12 08:31:14;;;;;;;5.78;2.97;;;27.90;86.90;;;;;;4189650;28;20115;-62
2021/08/12 08:33:15;;;;;;;6.47;2.92;;;28.00;87.20;;;;;;4188017;28;20550;-63
2021/08/12 08:35:16;;;;;;;5.60;3.20;;;28.10;86.60;;;;;;4189018;28;20021;-63
2021/08/12 08:37:18;;;;;;;4.13;2.90;;;28.30;86.10;;;;;;4188407;28;20020;-63
2021/08/12 08:39:19;;;;;;;6.43;2.90;;;28.30;85.20;;;;;;4188847;28;20035;-63
2021/08/12 08:41:21;;;;;;;5.18;3.42;;;28.30;84.60;;;;;;4188943;28;20079;-63
2021/08/12 08:43:24;;;;;;;3.40;2.63;;;28.30;84.70;;;;;;4187924;28;20078;-63
2021/08/12 08:45:27;;;;;;;3.65;3.10;;;28.30;84.40;;;;;;4189019;28;20040;-63
2021/08/12 08:47:29;;;;;;;4.07;3.20;;;28.30;84.30;;;;;;4187056;28;20070;-63
2021/08/12 08:49:31;;;;;;;7.97;3.45;;;28.30;84.40;;;;;;4189141;28;20029;-63
2021/08/12 08:51:36;;;;;;;7.50;3.15;;;28.30;84.70;;;;;;4187873;28;20021;-63
2021/08/12 08:53:39;;;;;;;4.55;2.67;;;28.30;84.50;;;;;;4189756;28;20101;-63
2021/08/12 08:55:41;;;;;;;4.18;2.72;;;28.40;84.60;;;;;;4187549;28;20488;-63
2021/08/12 08:57:42;;;;;;;3.35;2.47;;;28.40;83.80;;;;;;4189598;28;20029;-63
2021/08/12 08:59:44;;;;;;;3.33;2.63;;;28.40;83.70;;;;;;4187982;28;20528;-63
2021/08/12 09:01:46;;;;;;;3.10;2.80;;;28.30;83.50;;;;;;4189420;28;20032;-63
2021/08/12 09:03:47;;;;;;;6.20;4.65;;;28.30;83.60;;;;;;4187530;28;20106;-63
2021/08/12 09:05:48;;;;;;;7.13;3.80;;;28.20;83.40;;;;;;4187656;28;20045;-63
2021/08/12 09:07:50;;;;;;;13.35;3.55;;;27.90;83.40;;;;;;4187546;28;20085;-63
2021/08/12 09:09:51;;;;;;;5.78;2.58;;;27.50;84.30;;;;;;4188733;28;20053;-63
2021/08/12 09:11:52;;;;;;;5.63;3.42;;;27.50;85.10;;;;;;4188078;28;20087;-63
2021/08/12 09:13:54;;;;;;;4.78;2.78;;;27.60;85.50;;;;;;4188080;28;20161;-63
2021/08/12 09:15:55;;;;;;;3.90;2.70;;;27.40;84.30;;;;;;4188863;28;20960;-63
2021/08/12 09:17:59;;;;;;;3.90;2.90;;;27.60;84.70;;;;;;4187744;28;20513;-64
2021/08/12 09:20:01;;;;;;;4.03;3.13;;;27.60;84.30;;;;;;4189116;28;20430;-62
2021/08/12 09:22:03;;;;;;;4.70;2.95;;;27.70;84.20;;;;;;4186906;28;20094;-64
2021/08/12 09:24:04;;;;;;;4.07;3.22;;;27.90;84.10;;;;;;4189257;28;20094;-64
2021/08/12 09:26:18;;;;;;;7.13;2.80;;;28.00;83.90;;;;;;4186792;28;20032;-62
2021/08/12 09:28:30;;;;;;;5.95;2.60;;;28.30;83.70;;;;;;4188934;28;20059;-63
2021/08/12 09:30:31;;;;;;;4.50;2.83;;;28.20;82.40;;;;;;4187136;28;20408;-63
2021/08/12 09:32:44;;;;;;;6.40;3.28;;;28.20;81.80;;;;;;4189571;28;20045;-63
2021/08/12 09:34:48;;;;;;;8.52;2.70;;;28.00;80.80;;;;;;4187131;28;20443;-62
2021/08/12 09:37:02;;;;;;;7.90;3.17;;;27.90;81.40;;;;;;4188482;28;20109;-63
2021/08/12 09:39:10;;;;;;;4.75;3.47;;;27.70;80.90;;;;;;4187372;28;20085;-63
2021/08/12 09:41:11;;;;;;;6.30;2.75;;;27.30;82.10;;;;;;4187149;28;20491;-63
2021/08/12 09:43:12;;;;;;;5.55;2.60;;;27.50;82.90;;;;;;4187597;28;20029;-63
2021/08/12 09:45:25;;;;;;;5.75;2.40;;;27.60;82.00;;;;;;4188929;28;20040;-63
2021/08/12 09:47:30;;;;;;;3.28;2.75;;;27.70;79.00;;;;;;4187223;28;20049;-63
2021/08/12 09:49:46;;;;;;;5.85;2.63;;;27.80;79.70;;;;;;4188940;28;20446;-63
2021/08/12 09:51:47;;;;;;;3.08;2.25;;;28.00;76.90;;;;;;4187700;28;20074;-63
2021/08/12 09:54:09;;;;;;;4.32;2.55;;;28.00;77.40;;;;;;4189094;28;20029;-63
2021/08/12 09:56:12;;;;;;;3.58;2.72;;;27.80;74.80;;;;;;4187453;28;20468;-63
2021/08/12 09:58:14;;;;;;;3.53;2.50;;;27.60;76.50;;;;;;4189280;28;20086;-63
2021/08/12 10:00:24;;;;;;;3.50;2.42;;;27.70;76.70;;;;;;4190297;28;20098;-64
2021/08/12 10:02:30;;;;;;;2.63;2.30;;;27.60;77.10;;;;;;4192416;28;20028;-63
2021/08/12 10:04:31;;;;;;;4.03;2.40;;;27.70;77.00;;;;;;4190140;28;20029;-63
2021/08/12 10:06:36;;;;;;;3.67;2.60;;;27.30;76.90;;;;;;4191364;28;20491;-63
2021/08/12 10:08:39;;;;;;;4.43;3.08;;;27.40;77.60;;;;;;4189636;28;20086;-63
2021/08/12 10:10:40;;;;;;;3.20;1.90;;;27.50;77.30;;;;;;4191405;28;20029;-63
2021/08/12 10:12:46;;;;;;;4.30;1.98;;;27.60;76.40;;;;;;4190461;28;20025;-63
2021/08/12 10:14:48;;;;;;;6.28;2.15;;;27.60;76.00;;;;;;4191257;28;20044;-64
2021/08/12 10:16:49;;;;;;;3.55;1.85;;;27.70;75.50;;;;;;4190878;28;20020;-63
2021/08/12 10:18:50;;;;;;;3.65;2.15;;;27.70;75.10;;;;;;4190812;28;20082;-63
2021/08/12 10:20:51;;;;;;;2.53;1.73;;;27.70;75.20;;;;;;4191015;28;20054;-63
2021/08/12 10:22:54;;;;;;;5.45;2.97;;;27.80;74.90;;;;;;4189683;28;20446;-62
2021/08/12 10:24:56;;;;;;;6.35;2.00;;;27.90;74.70;;;;;;4191386;28;20067;-63
2021/08/12 10:26:59;;;;;;;4.72;2.42;;;27.70;73.30;;;;;;4189882;28;20033;-63
2021/08/12 10:29:21;;;;;;;2.55;2.20;;;27.70;74.40;;;;;;4191766;28;20062;-63
2021/08/12 10:31:28;;;;;;;5.20;2.03;;;27.70;74.70;;;;;;4189728;28;20118;-63
2021/08/12 10:33:29;;;;;;;9.75;2.05;;;27.80;74.60;;;;;;4192118;28;20036;-63
2021/08/12 10:35:33;;;;;;;5.95;2.13;;;27.90;73.90;;;;;;4189410;28;20090;-63
2021/08/12 10:37:34;;;;;;;6.13;3.05;;;27.70;72.50;;;;;;4191261;28;20465;-62